Página principal
METAR-TAF:

METAR-TAF

Aeroportos :

Aeroporto Internacional de Astana

Astana, Cazaquistão

latitude: 51-12N, longitude: 071-27E, altura: 355 m

Observação actual do tempo

O boletim foi feito há 22 minutos, às 19:00 UTC
Vento 14 kt de oes-sudoeste
Temperatura -8°C
Humidade 100%
Pressão 1036 hPa
Visibilidade 10 km ou mais
Nuvens fragmentadasa uma altura de 400 ft

METAR: UACC 141900Z 24007MPS 9999 BKN004 M08/M08 Q1036 R22/15//65 TEMPO 3000 BR BKN004 RMK QBB140 QFE745/0994

Hora: 01:22 (19:22 UTC)

Previsão

O boletim foi feito há 2 horas e 22 minutos, às 17:00 UTC
Previsão válida de 14 às 18 UTC a 15 às 18 UTC
Vento 12 kt de oes-sudoeste
Visibilidade 10 km ou mais
Nuvens dispersasa uma altura de 1000 ft
Nuvens fragmentadasa uma altura de 10000 ft
Temporariamente
de 14 às 18 UTC a 15 às 04 UTC
Visibilidade: 3000 m
Nuvens fragmentadasa uma altura de 400 ft
neblina

TAF: UACC 141700Z 1418/1518 24006MPS 9999 SCT010 BKN100 TXM05/1509Z TNM14/1501Z TEMPO 1418/1504 3000 BR BKN004

Observações e previsões do tempo de mais de 4000 aeroportos (mensagens METAR e TAF).

As estações disponíveis são os pontos amarelos e vermelhos sobre o mapa.

Mova o rato sobre o mapa para ver o nome da estação.

Depois clique no ponto para visualizar as observações e previsões meteorológicas.

Para alterar o mapa : clique nos botões verdes com uma cruz preta para aumentar o zoom; no botão verde com uma pitada de zoom; ou nas setas verdes para mapas adjacentes.


METAR-TAF: